createdAt,value
2017-12-23T00:02:18.675Z,8.40
2017-12-23T00:04:46.126Z,7.87
2017-12-23T00:07:13.578Z,7.97
2017-12-23T00:09:41.030Z,8.10
2017-12-23T00:12:08.490Z,8.67
2017-12-23T00:14:35.938Z,8.33
2017-12-23T00:17:04.134Z,7.80
2017-12-23T00:19:31.596Z,8.43
2017-12-23T00:21:59.054Z,8.43
2017-12-23T00:24:26.505Z,8.23
2017-12-23T00:26:53.947Z,8.80
2017-12-23T00:29:21.394Z,7.63
2017-12-23T00:31:49.622Z,9.10
2017-12-23T00:34:29.056Z,8.77
2017-12-23T00:36:56.502Z,9.00
2017-12-23T00:39:23.946Z,8.27
2017-12-23T00:41:52.167Z,8.10
2017-12-23T00:44:19.639Z,8.50
2017-12-23T00:46:47.112Z,7.97
2017-12-23T00:49:14.573Z,7.40
2017-12-23T00:51:42.008Z,7.50
2017-12-23T00:54:09.455Z,7.57
2017-12-23T00:56:37.006Z,8.70
2017-12-23T00:59:05.325Z,7.67
2017-12-23T01:01:32.768Z,7.67
2017-12-23T01:04:00.226Z,7.90
2017-12-23T01:06:28.432Z,7.33
2017-12-23T01:08:55.876Z,7.10
2017-12-23T01:11:24.113Z,7.23
2017-12-23T01:13:51.570Z,7.70
2017-12-23T01:16:19.008Z,7.77
2017-12-23T01:18:46.452Z,7.27
2017-12-23T01:21:13.897Z,8.30
2017-12-23T01:23:42.123Z,8.03
2017-12-23T01:26:09.573Z,7.93
2017-12-23T01:28:37.015Z,7.07
2017-12-23T01:31:05.263Z,7.77
2017-12-23T01:33:32.706Z,7.93
2017-12-23T01:36:00.142Z,8.20
2017-12-23T01:38:27.597Z,7.73
2017-12-23T01:40:55.044Z,8.03
2017-12-23T01:43:23.249Z,9.70
2017-12-23T01:45:50.720Z,8.33
2017-12-23T01:48:30.010Z,9.87
2017-12-23T01:50:57.449Z,9.57
2017-12-23T01:53:24.895Z,9.97
2017-12-23T01:55:52.349Z,9.20
2017-12-23T01:58:19.772Z,9.67
2017-12-23T02:00:47.981Z,9.87
2017-12-23T02:03:15.433Z,11.73
2017-12-23T02:05:42.897Z,10.50
2017-12-23T02:08:10.318Z,11.03
2017-12-23T02:10:37.764Z,10.80
2017-12-23T02:13:05.228Z,10.30
2017-12-23T02:15:32.678Z,10.73
2017-12-23T02:18:00.140Z,11.97
2017-12-23T02:20:27.570Z,11.93
2017-12-23T02:22:55.058Z,12.17
2017-12-23T02:25:22.510Z,12.03
2017-12-23T02:27:49.974Z,12.60
2017-12-23T02:30:17.416Z,12.93
2017-12-23T02:32:45.629Z,11.47
2017-12-23T02:35:13.090Z,12.07
2017-12-23T02:40:13.454Z,12.40
2017-12-23T02:42:41.658Z,12.20
2017-12-23T02:45:09.111Z,11.73
2017-12-23T02:47:36.568Z,12.50
2017-12-23T02:50:04.015Z,12.53
2017-12-23T02:52:31.451Z,12.47
2017-12-23T02:54:58.906Z,12.03
2017-12-23T02:57:26.350Z,11.57
2017-12-23T02:59:54.570Z,11.40
2017-12-23T03:02:22.022Z,10.40
2017-12-23T03:04:49.459Z,10.57
2017-12-23T03:07:17.681Z,10.53
2017-12-23T03:09:45.139Z,10.83
2017-12-23T03:12:12.592Z,11.03
2017-12-23T03:14:40.035Z,10.80
2017-12-23T03:17:07.491Z,10.70
2017-12-23T03:19:35.713Z,10.87
2017-12-23T03:22:03.177Z,10.57
2017-12-23T03:24:30.626Z,10.33
2017-12-23T03:26:58.062Z,10.67
2017-12-23T03:29:25.568Z,9.43
2017-12-23T03:31:53.030Z,9.97
2017-12-23T03:34:20.460Z,11.03
2017-12-23T03:36:47.931Z,9.77
2017-12-23T03:39:15.368Z,9.67
2017-12-23T03:41:43.581Z,9.73
2017-12-23T03:44:11.034Z,9.70
2017-12-23T03:46:38.470Z,8.67
2017-12-23T03:49:06.692Z,9.10
2017-12-23T03:51:34.395Z,9.77
2017-12-23T03:54:01.842Z,9.37
2017-12-23T03:56:29.284Z,9.80
2017-12-23T03:58:56.728Z,8.97
2017-12-23T04:01:24.188Z,9.77
2017-12-23T04:03:51.634Z,9.87
2017-12-23T04:06:19.866Z,9.87
2017-12-23T04:08:47.320Z,10.10
2017-12-23T04:11:14.769Z,9.87
2017-12-23T04:13:42.238Z,10.13
2017-12-23T04:16:09.700Z,10.63
2017-12-23T04:18:37.160Z,10.17
2017-12-23T04:21:04.604Z,10.73
2017-12-23T04:23:32.063Z,9.57
2017-12-23T04:25:59.505Z,11.10
2017-12-23T04:28:27.740Z,10.77
2017-12-23T04:30:56.344Z,11.53
2017-12-23T04:33:23.785Z,11.53
2017-12-23T04:35:51.247Z,11.80
2017-12-23T04:38:18.704Z,11.33
2017-12-23T04:40:46.142Z,11.33
2017-12-23T04:43:13.597Z,10.87
2017-12-23T04:45:41.033Z,11.27
2017-12-23T04:48:09.244Z,11.37
2017-12-23T04:50:36.704Z,10.87
2017-12-23T04:53:04.158Z,11.43
2017-12-23T04:55:31.628Z,12.23
2017-12-23T04:57:59.067Z,11.67
2017-12-23T05:00:27.298Z,12.83
2017-12-23T05:02:54.747Z,11.50
2017-12-23T05:05:22.198Z,11.53
2017-12-23T05:07:49.652Z,12.27
2017-12-23T05:10:17.110Z,12.13
2017-12-23T05:12:44.560Z,12.37
2017-12-23T05:15:12.774Z,11.93
2017-12-23T05:17:40.226Z,12.83
2017-12-23T05:20:07.693Z,13.03
2017-12-23T05:22:35.158Z,13.77
2017-12-23T05:25:02.632Z,13.47
2017-12-23T05:27:30.091Z,13.77
2017-12-23T05:29:57.536Z,13.10
2017-12-23T05:32:24.996Z,13.20
2017-12-23T05:34:52.433Z,13.93
2017-12-23T05:37:20.647Z,13.80
2017-12-23T05:39:48.103Z,14.30
2017-12-23T05:42:15.535Z,14.73
2017-12-23T05:44:43.754Z,13.57
2017-12-23T05:47:11.218Z,13.37
2017-12-23T05:49:39.354Z,13.87
2017-12-23T05:52:07.562Z,13.43
2017-12-23T05:54:35.034Z,14.33
2017-12-23T05:57:02.462Z,13.43
2017-12-23T05:59:30.700Z,14.47
2017-12-23T06:01:58.154Z,14.17
2017-12-23T06:04:25.603Z,14.47
2017-12-23T06:06:53.053Z,14.03
2017-12-23T06:09:20.522Z,14.63
2017-12-23T06:11:47.971Z,15.40
2017-12-23T06:14:15.415Z,15.53
2017-12-23T06:16:43.636Z,13.97
2017-12-23T06:19:11.087Z,13.30
2017-12-23T06:21:38.595Z,14.67
2017-12-23T06:24:06.063Z,14.43
2017-12-23T06:26:33.519Z,13.93
2017-12-23T06:29:00.966Z,15.27
2017-12-23T06:31:28.418Z,15.47
2017-12-23T06:33:55.865Z,15.60
2017-12-23T06:36:23.430Z,15.17
2017-12-23T06:38:50.887Z,15.63
2017-12-23T06:41:18.326Z,15.30
2017-12-23T06:43:46.542Z,15.30
2017-12-23T06:46:14.001Z,14.90
2017-12-23T06:48:41.461Z,15.43
2017-12-23T06:51:08.936Z,15.33
2017-12-23T06:53:36.459Z,15.80
2017-12-23T06:56:04.685Z,15.63
2017-12-23T06:58:32.144Z,15.93
2017-12-23T07:00:59.594Z,15.67
2017-12-23T07:03:27.055Z,15.03
2017-12-23T07:05:54.504Z,15.43
2017-12-23T07:08:21.985Z,15.93
2017-12-23T07:10:49.441Z,16.30
2017-12-23T07:13:16.919Z,17.43
2017-12-23T07:15:44.983Z,15.37
2017-12-23T07:18:12.446Z,15.33
2017-12-23T07:20:39.908Z,15.97
2017-12-23T07:23:07.355Z,15.40
2017-12-23T07:25:34.831Z,15.63
2017-12-23T07:28:02.296Z,15.60
2017-12-23T07:30:29.728Z,16.27
2017-12-23T07:32:57.954Z,15.10
2017-12-23T07:35:25.405Z,15.67
2017-12-23T07:37:52.851Z,15.00
2017-12-23T07:40:20.328Z,14.70
2017-12-23T07:42:47.794Z,15.37
2017-12-23T07:45:15.238Z,14.17
2017-12-23T07:47:42.688Z,14.63
2017-12-23T07:50:10.897Z,14.83
2017-12-23T07:52:38.329Z,14.77
2017-12-23T07:55:06.544Z,13.77
2017-12-23T07:57:33.995Z,14.10
2017-12-23T08:00:01.431Z,14.67
2017-12-23T08:02:29.662Z,14.07
2017-12-23T08:04:57.105Z,14.70
2017-12-23T08:07:24.548Z,13.50
2017-12-23T08:09:52.775Z,14.60
2017-12-23T08:12:20.224Z,13.97
2017-12-23T08:14:47.675Z,13.93
2017-12-23T08:17:15.125Z,13.17
2017-12-23T08:19:43.445Z,13.87
2017-12-23T08:22:10.909Z,13.60
2017-12-23T08:24:38.344Z,12.70
2017-12-23T08:27:05.786Z,13.60
2017-12-23T08:29:33.245Z,14.50
2017-12-23T08:32:01.459Z,14.27
2017-12-23T08:34:29.674Z,14.43
2017-12-23T08:36:57.113Z,14.17
2017-12-23T08:39:24.581Z,14.53
2017-12-23T08:41:52.035Z,15.10
2017-12-23T08:44:19.469Z,14.20
2017-12-23T08:46:46.920Z,14.73
2017-12-23T08:49:15.144Z,15.47
2017-12-23T08:51:42.607Z,15.77
2017-12-23T08:54:10.033Z,15.27
2017-12-23T08:56:37.483Z,16.27
2017-12-23T08:59:05.730Z,16.00
2017-12-23T09:01:34.342Z,15.50
2017-12-23T09:04:01.763Z,15.57
2017-12-23T09:06:29.220Z,14.90
2017-12-23T09:08:56.686Z,15.27
2017-12-23T09:11:24.136Z,14.80
2017-12-23T09:13:52.251Z,16.00
2017-12-23T09:16:19.717Z,15.13
2017-12-23T09:18:47.176Z,15.23
2017-12-23T09:21:14.611Z,14.97
2017-12-23T09:23:42.075Z,15.90
2017-12-23T09:26:09.520Z,15.97
2017-12-23T09:28:36.990Z,16.00
2017-12-23T09:31:04.501Z,15.03
2017-12-23T09:33:31.914Z,15.50
2017-12-23T09:35:59.368Z,15.17
2017-12-23T09:38:26.822Z,16.13
2017-12-23T09:40:55.624Z,15.27
2017-12-23T09:43:23.101Z,15.77
2017-12-23T09:45:50.544Z,15.10
2017-12-23T09:48:17.994Z,15.27
2017-12-23T09:50:46.223Z,15.07
2017-12-23T09:53:13.702Z,15.47
2017-12-23T09:55:41.152Z,14.17
2017-12-23T09:58:08.618Z,14.23
2017-12-23T10:00:36.061Z,14.27
2017-12-23T10:03:03.515Z,14.37
2017-12-23T10:05:30.954Z,14.03
2017-12-23T10:07:58.415Z,13.73
2017-12-23T10:10:25.870Z,12.87
2017-12-23T10:12:54.085Z,13.47
2017-12-23T10:15:21.546Z,12.83
2017-12-23T10:17:48.989Z,12.43
2017-12-23T10:20:16.438Z,11.27
2017-12-23T10:22:44.667Z,12.57
2017-12-23T10:25:12.104Z,11.87
2017-12-23T10:27:39.548Z,11.73
2017-12-23T10:30:07.784Z,11.40
2017-12-23T10:32:35.238Z,10.77
2017-12-23T10:35:02.695Z,10.77
2017-12-23T10:37:30.168Z,10.67
2017-12-23T10:39:57.640Z,10.93
2017-12-23T10:42:25.099Z,10.40
2017-12-23T10:44:52.544Z,10.73
2017-12-23T10:47:20.008Z,10.60
2017-12-23T10:49:47.468Z,10.60
2017-12-23T10:52:14.924Z,10.87
2017-12-23T10:54:42.389Z,10.70
2017-12-23T10:57:09.823Z,10.50
2017-12-23T10:59:37.311Z,10.67
2017-12-23T11:02:04.767Z,10.10
2017-12-23T11:04:32.215Z,11.27
2017-12-23T11:07:00.421Z,9.77
2017-12-23T11:09:27.852Z,10.13
2017-12-23T11:11:55.290Z,10.10
2017-12-23T11:14:22.746Z,10.27
2017-12-23T11:16:50.187Z,12.10
2017-12-23T11:19:17.643Z,10.20
2017-12-23T11:21:45.120Z,11.57
2017-12-23T11:24:12.566Z,10.43
2017-12-23T11:26:40.017Z,10.50
2017-12-23T11:29:07.460Z,10.93
2017-12-23T11:31:34.919Z,10.37
2017-12-23T11:34:02.364Z,9.80
2017-12-23T11:36:30.573Z,10.87
2017-12-23T11:38:58.034Z,10.80
2017-12-23T11:41:25.489Z,10.80
2017-12-23T11:43:52.930Z,10.40
2017-12-23T11:46:21.156Z,9.57
2017-12-23T11:48:48.593Z,10.27
2017-12-23T11:51:16.062Z,10.47
2017-12-23T11:53:43.482Z,10.40
2017-12-23T11:56:10.925Z,10.70
2017-12-23T11:58:38.374Z,9.40
2017-12-23T12:01:05.829Z,10.03
2017-12-23T12:03:33.286Z,9.00
2017-12-23T12:06:00.748Z,9.30
2017-12-23T12:08:28.204Z,9.80
2017-12-23T12:10:55.630Z,9.03
2017-12-23T12:13:23.842Z,9.70
2017-12-23T12:15:51.291Z,9.53
2017-12-23T12:18:18.747Z,9.83
2017-12-23T12:20:46.974Z,9.70
2017-12-23T12:23:14.429Z,10.17
2017-12-23T12:25:41.874Z,9.40
2017-12-23T12:28:09.323Z,9.13
2017-12-23T12:30:36.783Z,9.23
2017-12-23T12:33:04.232Z,9.37
2017-12-23T12:35:32.437Z,8.97
2017-12-23T12:37:59.882Z,9.23
2017-12-23T12:40:28.097Z,9.03
2017-12-23T12:42:56.316Z,9.47
2017-12-23T12:45:23.767Z,8.87
2017-12-23T12:47:51.205Z,8.83
2017-12-23T12:50:19.424Z,10.20
2017-12-23T12:52:46.876Z,9.30
2017-12-23T12:55:14.335Z,9.13
2017-12-23T12:57:41.771Z,8.63
2017-12-23T13:00:09.225Z,9.43
2017-12-23T13:02:36.682Z,9.27
2017-12-23T13:05:04.141Z,9.10
2017-12-23T13:07:31.592Z,9.53
2017-12-23T13:09:59.042Z,10.43
2017-12-23T13:12:27.246Z,9.90
2017-12-23T13:14:54.690Z,9.67
2017-12-23T13:17:22.922Z,9.30
2017-12-23T13:19:50.351Z,10.13
2017-12-23T13:22:17.811Z,9.97
2017-12-23T13:24:45.265Z,9.27
2017-12-23T13:27:12.711Z,9.63
2017-12-23T13:29:40.932Z,9.60
2017-12-23T13:32:09.144Z,11.00
2017-12-23T13:34:36.602Z,9.47
2017-12-23T13:37:04.042Z,9.43
2017-12-23T13:39:31.495Z,10.70
2017-12-23T13:41:58.932Z,9.57
2017-12-23T13:44:27.157Z,9.60
2017-12-23T13:46:54.614Z,9.47
2017-12-23T13:49:22.080Z,10.83
2017-12-23T13:51:49.950Z,10.27
2017-12-23T13:54:17.405Z,10.20
2017-12-23T13:56:44.865Z,10.07
2017-12-23T13:59:12.311Z,11.00
2017-12-23T14:01:39.774Z,9.60
2017-12-23T14:04:07.214Z,9.93
2017-12-23T14:06:35.427Z,10.40
2017-12-23T14:09:02.876Z,10.57
2017-12-23T14:11:30.344Z,10.20
2017-12-23T14:13:57.801Z,9.93
2017-12-23T14:16:25.239Z,9.67
2017-12-23T14:18:53.452Z,9.77
2017-12-23T14:21:20.914Z,9.20
2017-12-23T14:23:48.363Z,9.40
2017-12-23T14:26:15.795Z,9.10
2017-12-23T14:28:43.248Z,8.83
2017-12-23T14:31:10.717Z,8.87
2017-12-23T14:33:38.159Z,9.23
2017-12-23T14:36:05.619Z,8.53
2017-12-23T14:38:33.051Z,8.87
2017-12-23T14:41:01.434Z,8.50
2017-12-23T14:43:28.888Z,9.00
2017-12-23T14:45:56.352Z,9.10
2017-12-23T14:48:23.809Z,8.83
2017-12-23T14:50:51.252Z,8.97
2017-12-23T14:53:19.470Z,9.50
2017-12-23T14:55:46.925Z,9.70
2017-12-23T14:58:14.363Z,8.20
2017-12-23T15:00:42.604Z,9.07
2017-12-23T15:03:10.064Z,8.40
2017-12-23T15:05:38.274Z,8.33
2017-12-23T15:08:06.483Z,8.17
2017-12-23T15:10:33.938Z,8.70
2017-12-23T15:13:01.377Z,9.07
2017-12-23T15:15:29.588Z,8.60
2017-12-23T15:17:57.040Z,8.93
2017-12-23T15:20:24.482Z,9.53
2017-12-23T15:22:52.696Z,8.83
2017-12-23T15:25:20.152Z,8.87
2017-12-23T15:27:47.591Z,8.90
2017-12-23T15:30:15.802Z,8.87
2017-12-23T15:32:43.239Z,9.07
2017-12-23T15:35:11.480Z,9.43
2017-12-23T15:37:38.926Z,9.13
2017-12-23T15:40:06.373Z,9.53
2017-12-23T15:42:33.827Z,8.80
2017-12-23T15:45:01.289Z,8.83
2017-12-23T15:47:28.728Z,9.17
2017-12-23T15:49:56.932Z,8.70
2017-12-23T15:52:24.374Z,10.07
2017-12-23T15:54:52.598Z,10.17
2017-12-23T15:57:20.055Z,11.03
2017-12-23T15:59:48.257Z,9.43
2017-12-23T16:02:15.717Z,9.60
2017-12-23T16:04:43.145Z,9.80
2017-12-23T16:07:10.594Z,9.83
2017-12-23T16:09:38.043Z,9.53
2017-12-23T16:12:06.276Z,8.97
2017-12-23T16:14:33.719Z,9.63
2017-12-23T16:17:01.938Z,10.17
2017-12-23T16:19:29.387Z,9.43
2017-12-23T16:21:56.818Z,10.27
2017-12-23T16:24:24.276Z,10.30
2017-12-23T16:26:51.732Z,9.73
2017-12-23T16:29:19.170Z,9.90
2017-12-23T16:31:47.394Z,9.80
2017-12-23T16:34:14.853Z,10.63
2017-12-23T16:36:42.293Z,9.90
2017-12-23T16:39:09.742Z,10.10
2017-12-23T16:41:37.951Z,11.20
2017-12-23T16:44:05.409Z,10.07
2017-12-23T16:46:32.834Z,10.93
2017-12-23T16:49:01.041Z,9.90
2017-12-23T16:51:28.495Z,10.30
2017-12-23T16:53:56.717Z,10.37
2017-12-23T16:56:24.157Z,10.47
2017-12-23T16:58:51.683Z,10.33
2017-12-23T17:01:19.136Z,10.70
2017-12-23T17:03:46.593Z,10.60
2017-12-23T17:06:14.031Z,10.77
2017-12-23T17:08:41.480Z,10.80
2017-12-23T17:11:08.937Z,10.93
2017-12-23T17:13:36.403Z,10.93
2017-12-23T17:16:03.834Z,10.63
2017-12-23T17:18:32.059Z,12.00
2017-12-23T17:20:59.504Z,10.70
2017-12-23T17:23:26.943Z,11.17
2017-12-23T17:25:55.147Z,10.87
2017-12-23T17:28:34.376Z,10.63
2017-12-23T17:31:01.820Z,11.10
2017-12-23T17:33:29.266Z,11.00
2017-12-23T17:35:57.481Z,11.60
2017-12-23T17:38:24.926Z,10.90
2017-12-23T17:40:53.153Z,12.07
2017-12-23T17:43:20.583Z,12.33
2017-12-23T17:45:48.031Z,13.23
2017-12-23T17:48:15.506Z,10.87
2017-12-23T17:50:42.945Z,12.50
2017-12-23T17:53:11.161Z,11.37
2017-12-23T17:55:38.611Z,11.03
2017-12-23T17:58:06.055Z,11.57
2017-12-23T18:00:34.275Z,11.93
2017-12-23T18:03:01.734Z,12.13
2017-12-23T18:05:29.173Z,12.43
2017-12-23T18:07:57.416Z,11.73
2017-12-23T18:10:24.876Z,12.47
2017-12-23T18:12:52.311Z,11.77
2017-12-23T18:15:19.755Z,12.20
2017-12-23T18:17:47.221Z,12.13
2017-12-23T18:20:14.665Z,11.47
2017-12-23T18:22:42.117Z,11.87
2017-12-23T18:25:10.340Z,12.03
2017-12-23T18:27:37.780Z,12.03
2017-12-23T18:30:05.252Z,11.43
2017-12-23T18:32:32.708Z,11.83
2017-12-23T18:35:00.141Z,10.93
2017-12-23T18:37:28.358Z,11.70
2017-12-23T18:39:56.636Z,12.47
2017-12-23T18:42:24.082Z,11.67
2017-12-23T18:44:51.540Z,11.67
2017-12-23T18:47:19.751Z,10.47
2017-12-23T18:49:47.198Z,12.13
2017-12-23T18:52:14.641Z,11.47
2017-12-23T18:54:42.860Z,10.60
2017-12-23T18:57:10.286Z,10.93
2017-12-23T18:59:37.739Z,10.90
2017-12-23T19:02:05.951Z,11.07
2017-12-23T19:04:33.402Z,10.50
2017-12-23T19:07:00.867Z,10.57
2017-12-23T19:09:28.312Z,10.97
2017-12-23T19:11:55.764Z,11.33
2017-12-23T19:14:23.970Z,11.00
2017-12-23T19:16:54.423Z,11.03
2017-12-23T19:19:21.856Z,11.20
2017-12-23T19:21:49.298Z,11.17
2017-12-23T19:24:17.511Z,11.73
2017-12-23T19:26:44.988Z,11.93
2017-12-23T19:29:12.532Z,11.47
2017-12-23T19:31:39.978Z,11.23
2017-12-23T19:34:08.200Z,11.20
2017-12-23T19:36:35.641Z,12.50
2017-12-23T19:39:03.117Z,11.97
2017-12-23T19:41:30.576Z,11.77
2017-12-23T19:43:58.141Z,12.33
2017-12-23T19:46:25.641Z,12.03
2017-12-23T19:48:53.092Z,11.57
2017-12-23T19:51:20.534Z,11.20
2017-12-23T19:53:47.997Z,12.80
2017-12-23T19:56:15.452Z,12.57
2017-12-23T19:58:42.878Z,11.83
2017-12-23T20:01:11.142Z,11.50
2017-12-23T20:03:38.567Z,11.23
2017-12-23T20:06:06.025Z,12.30
2017-12-23T20:08:33.475Z,12.40
2017-12-23T20:11:00.932Z,12.20
2017-12-23T20:13:28.380Z,12.17
2017-12-23T20:15:56.590Z,11.80
2017-12-23T20:18:24.022Z,12.17
2017-12-23T20:20:51.488Z,12.53
2017-12-23T20:23:18.946Z,12.00
2017-12-23T20:25:47.172Z,12.13
2017-12-23T20:28:14.641Z,11.67
2017-12-23T20:30:42.109Z,11.53
2017-12-23T20:33:09.562Z,12.57
2017-12-23T20:35:37.047Z,11.93
2017-12-23T20:38:04.509Z,12.10
2017-12-23T20:40:31.942Z,12.00
2017-12-23T20:42:59.406Z,12.57
2017-12-23T20:45:26.845Z,12.43
2017-12-23T20:47:54.291Z,12.30
2017-12-23T20:50:22.515Z,11.40
2017-12-23T20:52:49.980Z,11.57
2017-12-23T20:55:17.486Z,11.70
2017-12-23T20:57:45.698Z,11.20
2017-12-23T21:00:13.161Z,10.87
2017-12-23T21:02:40.614Z,10.43
2017-12-23T21:05:08.069Z,11.07
2017-12-23T21:07:35.517Z,11.60
2017-12-23T21:10:03.727Z,12.00
2017-12-23T21:12:31.194Z,10.73
2017-12-23T21:14:58.636Z,12.10
2017-12-23T21:17:26.127Z,11.57
2017-12-23T21:19:53.577Z,11.90
2017-12-23T21:22:21.035Z,11.30
2017-12-23T21:24:48.500Z,12.20
2017-12-23T21:27:15.952Z,11.60
2017-12-23T21:29:43.425Z,11.97
2017-12-23T21:32:10.880Z,12.67
2017-12-23T21:34:38.339Z,12.03
2017-12-23T21:37:06.524Z,12.20
2017-12-23T21:39:33.971Z,12.40
2017-12-23T21:42:02.185Z,11.87
2017-12-23T21:44:29.647Z,12.93
2017-12-23T21:46:57.851Z,12.53
2017-12-23T21:49:25.351Z,13.37
2017-12-23T21:51:53.570Z,12.50
2017-12-23T21:54:21.033Z,12.33
2017-12-23T21:56:48.490Z,12.33
2017-12-23T21:59:15.973Z,11.67
2017-12-23T22:01:43.425Z,12.37
2017-12-23T22:04:10.875Z,12.83
2017-12-23T22:06:38.339Z,13.03
2017-12-23T22:09:05.786Z,12.17
2017-12-23T22:11:33.235Z,12.37
2017-12-23T22:14:01.866Z,14.00
2017-12-23T22:16:29.324Z,13.23
2017-12-23T22:18:56.775Z,12.73
2017-12-23T22:21:24.215Z,12.73
2017-12-23T22:23:52.427Z,12.83
2017-12-23T22:26:19.867Z,12.67
2017-12-23T22:28:47.313Z,12.57
2017-12-23T22:31:15.528Z,13.27
2017-12-23T22:33:42.998Z,13.00
2017-12-23T22:36:10.446Z,13.50
2017-12-23T22:38:37.887Z,12.67
2017-12-23T22:41:06.102Z,13.20
2017-12-23T22:43:33.651Z,12.83
2017-12-23T22:46:04.863Z,12.83
2017-12-23T22:51:27.222Z,12.50
2017-12-23T22:53:55.518Z,14.03
2017-12-23T22:56:38.252Z,13.53
2017-12-23T22:59:10.125Z,12.60
2017-12-23T23:01:37.674Z,12.97
2017-12-23T23:04:05.134Z,13.70
2017-12-23T23:06:35.382Z,13.07
2017-12-23T23:09:02.864Z,13.83
2017-12-23T23:11:30.310Z,13.13
2017-12-23T23:13:57.803Z,13.43
2017-12-23T23:16:25.241Z,13.50
2017-12-23T23:18:52.694Z,13.13
2017-12-23T23:21:20.137Z,14.40
2017-12-23T23:23:47.599Z,13.43
2017-12-23T23:26:15.032Z,14.30
2017-12-23T23:28:43.255Z,13.37
2017-12-23T23:31:10.705Z,14.07
2017-12-23T23:33:38.151Z,13.23
2017-12-23T23:36:05.599Z,13.73
2017-12-23T23:38:33.819Z,13.67
2017-12-23T23:41:02.051Z,13.17
2017-12-23T23:43:29.494Z,13.07
2017-12-23T23:45:56.938Z,13.57
2017-12-23T23:48:24.410Z,14.33
2017-12-23T23:50:51.871Z,14.33
2017-12-23T23:53:19.335Z,14.00
2017-12-23T23:55:46.798Z,15.03
2017-12-23T23:58:14.390Z,16.00
